KFHRKBLI

Guest
Details From KFHR - Friday Harbor
To KBLI - Bellingham Intl
Flight Number -
Tags Generated
Created
Modified
Stats Distance 25 nm / 47 km
Max Altitude 0 ft / 0 m
Waypoints 2
Social Downloads 0
Likes 0
Share VATSIM

Download

Looking for another format? Having issues loading an existing format? Contact us
Advertisement - Login to hide

Notes

Generated

Route

KFHR KBLI

ID Type Via Altitude Latitude Longitude Leg Dist Tot Dist Heading (true) Name
O KFHR APT - 0 ft / 0 m 48.52662˚ -123.02473˚ - 0 nm - -
O KBLI APT - 0 ft / 0 m 48.80188˚ -122.53756˚ 25 nm 25 nm 49° / 50° -

Altitude Profile

Advertisement - Login to hide

KFHR

Details ICAO KFHR (FRD)
Name FRIDAY HARBOR
Region United States
Timezone America/Los_Angeles (UTC-7.0)
Stats Elevation 113 ft / 34 m (AMSL)
Location 48.521966° -123.024368°
Runways 1
Magnetic Variation 16.006° E

METAR

KFHR 260053Z AUTO 23009G16KT 10SM CLR 17/03 A2999 RMK AO2 SLP156 T01720033 TSNO

Decode

TAF

Not found

Departure Runways

ID Width Length Bearing (true) Bearing (mag) Surface Threshold Offset Overrun Length
16 75 ft / 23 m 3,402 ft / 1,037 m 177.06° 161.05° Asphalt 0 ft / 0 m 0 ft / 0 m
34 75 ft / 23 m 3,402 ft / 1,037 m 357.06° 341.05° Asphalt 0 ft / 0 m 0 ft / 0 m

KBLI

Details ICAO KBLI (BLI)
Name BELLINGHAM INTL
Region United States
Timezone America/Los_Angeles (UTC-7.0)
Stats Elevation 170 ft / 52 m (AMSL)
Location 48.792615° -122.537535°
Runways 1
Magnetic Variation 15.985° E

METAR

KBLI 260053Z 16013G18KT 10SM CLR 17/01 A2998 RMK AO2 SLP159 T01720011

Decode

TAF

TAF KBLI 252325Z 2600/2624 17011KT P6SM SCT060 SCT200 FM260900 17008KT P6SM SCT015 BKN025 OVC060 FM261300 17011KT P6SM SCT012 BKN018 OVC030 FM261800 17011KT P6SM SCT020 BKN035 FM262100 17012KT P6SM SKC

Decode

Destination Runways

ID Width Length Bearing (true) Bearing (mag) Surface Threshold Offset Overrun Length
16 151 ft / 46 m 6,755 ft / 2,059 m 179.88° 163.89° Asphalt 0 ft / 0 m 0 ft / 0 m
34 151 ft / 46 m 6,755 ft / 2,059 m 359.88° 343.89° Asphalt 0 ft / 0 m 0 ft / 0 m

Approach Navaids

Runway Type Ident Frequency Range Bearing (true) Bearing (mag) Slope Elevation
16 Localiser IBLI 108.50 MHz 18 nm / 33 km 179.83° 163.84° - 152 ft / 46 m (AMSL)
16 Glidescope IBLI 108.50 MHz 10 nm / 19 km 179.88° 163.89° 3.00° 154 ft / 47 m (AMSL)

Popular Alternatives